createdAt,value
2023-05-08T00:01:57.373Z,18.00
2023-05-08T00:04:23.894Z,18.07
2023-05-08T00:06:51.535Z,18.01
2023-05-08T00:09:17.967Z,18.01
2023-05-08T00:11:44.359Z,18.08
2023-05-08T00:14:10.829Z,18.11
2023-05-08T00:16:37.462Z,18.01
2023-05-08T00:19:03.926Z,18.05
2023-05-08T00:21:31.156Z,17.99
2023-05-08T00:23:57.562Z,17.84
2023-05-08T00:26:24.141Z,17.98
2023-05-08T00:28:50.523Z,17.95
2023-05-08T00:31:16.896Z,18.02
2023-05-08T00:33:43.269Z,18.05
2023-05-08T00:36:09.850Z,18.11
2023-05-08T00:38:36.770Z,18.15
2023-05-08T00:41:03.468Z,18.10
2023-05-08T00:43:29.930Z,17.95
2023-05-08T00:46:01.431Z,17.97
2023-05-08T00:48:30.643Z,18.05
2023-05-08T00:50:58.262Z,18.13
2023-05-08T00:53:26.522Z,18.15
2023-05-08T00:55:53.567Z,18.16
2023-05-08T00:58:21.279Z,18.12
2023-05-08T01:00:48.960Z,18.08
2023-05-08T01:03:15.693Z,18.03
2023-05-08T01:05:43.540Z,17.92
2023-05-08T01:08:09.949Z,17.88
2023-05-08T01:10:54.927Z,17.86
2023-05-08T01:13:35.868Z,17.91
2023-05-08T01:16:20.029Z,17.96
2023-05-08T01:18:56.393Z,18.02
2023-05-08T01:21:34.629Z,17.96
2023-05-08T01:24:21.499Z,17.94
2023-05-08T01:26:55.949Z,17.98
2023-05-08T01:29:22.298Z,17.92
2023-05-08T01:32:05.943Z,17.86
2023-05-08T01:34:34.963Z,17.83
2023-05-08T01:37:03.595Z,17.77
2023-05-08T01:39:48.446Z,17.75
2023-05-08T01:42:40.185Z,17.75
2023-05-08T01:45:39.125Z,17.74
2023-05-08T01:48:11.051Z,17.68
2023-05-08T01:50:50.688Z,17.56
2023-05-08T01:53:22.858Z,17.46
2023-05-08T01:55:54.486Z,17.45
2023-05-08T01:58:23.076Z,17.62
2023-05-08T02:00:51.455Z,17.65
2023-05-08T02:03:20.944Z,17.65
2023-05-08T02:05:49.108Z,17.64
2023-05-08T02:08:16.697Z,17.53
2023-05-08T02:10:43.555Z,17.61
2023-05-08T02:13:11.456Z,17.73
2023-05-08T02:15:39.835Z,17.76
2023-05-08T02:18:08.552Z,17.69
2023-05-08T02:20:36.644Z,17.69
2023-05-08T02:23:03.544Z,17.73
2023-05-08T02:25:31.121Z,17.71
2023-05-08T02:27:59.037Z,17.67
2023-05-08T02:30:27.544Z,17.63
2023-05-08T02:32:58.933Z,17.63
2023-05-08T02:35:30.851Z,17.59
2023-05-08T02:37:58.526Z,17.55
2023-05-08T02:40:29.096Z,17.62
2023-05-08T02:42:56.046Z,17.70
2023-05-08T02:45:25.720Z,17.72
2023-05-08T02:48:18.976Z,17.60
2023-05-08T02:51:05.178Z,17.41
2023-05-08T02:53:51.736Z,17.25
2023-05-08T02:56:44.107Z,17.39
2023-05-08T02:59:19.195Z,17.44
2023-05-08T03:01:59.819Z,17.34
2023-05-08T03:04:32.219Z,17.28
2023-05-08T03:07:00.698Z,17.38
2023-05-08T03:09:36.870Z,17.49
2023-05-08T03:12:08.591Z,17.54
2023-05-08T03:14:41.937Z,17.46
2023-05-08T03:17:12.982Z,17.40
2023-05-08T03:19:41.954Z,17.34
2023-05-08T03:22:10.201Z,17.25
2023-05-08T03:24:38.816Z,17.29
2023-05-08T03:27:06.201Z,17.33
2023-05-08T03:29:33.893Z,17.38
2023-05-08T03:32:02.295Z,17.51
2023-05-08T03:34:30.184Z,17.42
2023-05-08T03:36:56.919Z,17.41
2023-05-08T03:39:25.460Z,17.51
2023-05-08T03:41:52.051Z,17.48
2023-05-08T03:44:18.995Z,17.52
2023-05-08T03:46:47.425Z,17.56
2023-05-08T03:49:14.838Z,17.61
2023-05-08T03:51:42.118Z,17.65
2023-05-08T03:54:08.531Z,17.62
2023-05-08T03:56:35.045Z,17.61
2023-05-08T03:59:17.307Z,17.61
2023-05-08T04:01:59.968Z,17.61
2023-05-08T04:04:40.839Z,17.69
2023-05-08T04:07:23.026Z,17.64
2023-05-08T04:09:56.241Z,17.66
2023-05-08T04:12:45.222Z,17.63
2023-05-08T04:15:20.460Z,17.73
2023-05-08T04:17:55.819Z,17.73
2023-05-08T04:20:25.898Z,17.66
2023-05-08T04:22:54.356Z,17.62
2023-05-08T04:25:21.517Z,17.65
2023-05-08T04:27:51.080Z,17.59
2023-05-08T04:30:18.137Z,17.48
2023-05-08T04:32:46.715Z,17.52
2023-05-08T04:35:14.078Z,17.60
2023-05-08T04:37:42.971Z,17.66
2023-05-08T04:40:10.523Z,17.50
2023-05-08T04:42:38.736Z,17.32
2023-05-08T04:45:06.443Z,17.37
2023-05-08T04:47:32.934Z,17.32
2023-05-08T04:50:00.710Z,17.22
2023-05-08T04:52:28.785Z,17.22
2023-05-08T04:54:55.270Z,17.09
2023-05-08T04:57:21.709Z,17.11
2023-05-08T04:59:48.101Z,17.18
2023-05-08T05:02:14.566Z,17.10
2023-05-08T05:04:41.008Z,17.08
2023-05-08T05:07:07.412Z,17.10
2023-05-08T05:09:36.978Z,17.12
2023-05-08T05:12:04.287Z,17.18
2023-05-08T05:14:30.894Z,17.21
2023-05-08T05:16:57.287Z,17.28
2023-05-08T05:19:23.724Z,17.19
2023-05-08T05:21:50.163Z,17.07
2023-05-08T05:24:16.597Z,17.02
2023-05-08T05:26:44.164Z,17.13
2023-05-08T05:29:10.563Z,17.22
2023-05-08T05:31:37.283Z,17.25
2023-05-08T05:34:03.873Z,17.28
2023-05-08T05:36:30.708Z,17.26
2023-05-08T05:38:57.247Z,17.02
2023-05-08T05:41:24.287Z,16.93
2023-05-08T05:43:50.942Z,16.89
2023-05-08T05:46:18.100Z,17.08
2023-05-08T05:48:44.514Z,17.26
2023-05-08T05:51:10.906Z,17.33
2023-05-08T05:53:37.412Z,17.18
2023-05-08T05:56:03.930Z,17.24
2023-05-08T05:58:30.324Z,17.23
2023-05-08T06:01:00.947Z,17.21
2023-05-08T06:03:27.893Z,17.20
2023-05-08T06:05:55.779Z,17.22
2023-05-08T06:08:23.003Z,17.20
2023-05-08T06:10:49.479Z,17.18
2023-05-08T06:13:16.341Z,17.20
2023-05-08T06:15:42.995Z,17.22
2023-05-08T06:18:09.513Z,17.19
2023-05-08T06:20:38.226Z,17.10
2023-05-08T06:23:05.529Z,17.08
2023-05-08T06:25:32.384Z,17.09
2023-05-08T06:28:02.261Z,17.08
2023-05-08T06:30:28.657Z,17.11
2023-05-08T06:32:55.214Z,17.09
2023-05-08T06:35:21.850Z,17.14
2023-05-08T06:37:48.392Z,17.14
2023-05-08T06:40:14.944Z,17.09
2023-05-08T06:42:41.714Z,17.09
2023-05-08T06:45:09.280Z,17.04
2023-05-08T06:47:35.843Z,17.07
2023-05-08T06:50:02.487Z,17.02
2023-05-08T06:52:29.015Z,17.03
2023-05-08T06:54:55.508Z,17.01
2023-05-08T06:57:22.012Z,16.96
2023-05-08T06:59:48.405Z,16.89
2023-05-08T07:02:16.154Z,16.91
2023-05-08T07:04:44.317Z,16.83
2023-05-08T07:07:11.683Z,16.76
2023-05-08T07:09:38.250Z,16.83
2023-05-08T07:12:05.201Z,16.93
2023-05-08T07:14:31.701Z,16.96
2023-05-08T07:17:03.748Z,16.96
2023-05-08T07:19:30.382Z,16.92
2023-05-08T07:22:00.925Z,17.08
2023-05-08T07:24:27.420Z,17.17
2023-05-08T07:26:53.929Z,17.30
2023-05-08T07:29:20.734Z,17.39
2023-05-08T07:31:48.522Z,17.40
2023-05-08T07:34:15.264Z,17.35
2023-05-08T07:36:41.902Z,17.32
2023-05-08T07:39:08.337Z,17.38
2023-05-08T07:41:36.051Z,17.28
2023-05-08T07:44:03.203Z,17.27
2023-05-08T07:46:29.690Z,17.19
2023-05-08T07:48:56.330Z,17.23
2023-05-08T07:51:22.827Z,17.29
2023-05-08T07:53:50.900Z,17.34
2023-05-08T07:56:17.493Z,17.48
2023-05-08T07:58:45.878Z,17.55
2023-05-08T08:01:12.277Z,17.64
2023-05-08T08:03:38.766Z,17.69
2023-05-08T08:06:05.421Z,17.71
2023-05-08T08:08:31.819Z,17.74
2023-05-08T08:10:58.197Z,17.72
2023-05-08T08:13:24.754Z,17.77
2023-05-08T08:15:52.064Z,17.71
2023-05-08T08:18:19.105Z,17.75
2023-05-08T08:20:45.591Z,17.69
2023-05-08T08:23:12.005Z,17.69
2023-05-08T08:25:38.586Z,17.83
2023-05-08T08:28:14.177Z,18.06
2023-05-08T08:30:40.914Z,18.12
2023-05-08T08:33:07.534Z,18.08
2023-05-08T08:35:33.972Z,18.10
2023-05-08T08:38:02.611Z,18.06
2023-05-08T08:40:29.132Z,18.10
2023-05-08T08:42:59.113Z,18.07
2023-05-08T08:45:25.832Z,18.17
2023-05-08T08:47:53.377Z,18.22
2023-05-08T08:50:22.016Z,18.22
2023-05-08T08:53:06.550Z,18.38
2023-05-08T08:55:35.819Z,18.42
2023-05-08T08:58:17.974Z,18.27
2023-05-08T09:00:44.667Z,18.38
2023-05-08T09:03:11.204Z,18.42
2023-05-08T09:05:43.112Z,18.37
2023-05-08T09:08:10.792Z,18.42
2023-05-08T09:10:37.295Z,18.39
2023-05-08T09:13:04.819Z,18.54
2023-05-08T09:15:34.945Z,18.69
2023-05-08T09:18:02.988Z,18.84
2023-05-08T09:20:30.145Z,18.97
2023-05-08T09:23:06.622Z,19.05
2023-05-08T09:25:50.668Z,19.08
2023-05-08T09:28:27.102Z,19.06
2023-05-08T09:30:59.836Z,19.06
2023-05-08T09:33:28.349Z,18.95
2023-05-08T09:35:56.247Z,18.77
2023-05-08T09:38:37.710Z,18.92
2023-05-08T09:41:07.576Z,19.01
2023-05-08T09:43:34.401Z,18.96
2023-05-08T09:46:19.362Z,18.95
2023-05-08T09:48:46.013Z,18.83
2023-05-08T09:51:12.511Z,18.94
2023-05-08T09:53:39.049Z,18.98
2023-05-08T09:56:06.160Z,18.91
2023-05-08T09:58:43.686Z,18.99
2023-05-08T10:01:28.901Z,18.93
2023-05-08T10:03:55.561Z,19.06
2023-05-08T10:06:22.007Z,18.98
2023-05-08T10:08:49.516Z,18.97
2023-05-08T10:11:18.042Z,19.11
2023-05-08T10:13:45.496Z,19.13
2023-05-08T10:16:18.465Z,18.95
2023-05-08T10:18:48.473Z,19.06
2023-05-08T10:21:16.173Z,19.10
2023-05-08T10:23:44.226Z,19.19
2023-05-08T10:26:16.383Z,19.20
2023-05-08T10:28:55.791Z,19.17
2023-05-08T10:31:25.832Z,19.19
2023-05-08T10:33:55.901Z,19.32
2023-05-08T10:36:24.413Z,19.53
2023-05-08T10:38:51.931Z,19.44
2023-05-08T10:41:19.976Z,19.47
2023-05-08T10:43:46.862Z,19.62
2023-05-08T10:46:22.137Z,19.64
2023-05-08T10:49:00.583Z,19.58
2023-05-08T10:51:41.883Z,19.55
2023-05-08T10:54:13.844Z,19.54
2023-05-08T10:56:40.292Z,19.66
2023-05-08T10:59:06.933Z,19.81
2023-05-08T11:01:33.416Z,19.88
2023-05-08T11:04:00.142Z,19.82
2023-05-08T11:06:46.228Z,19.76
2023-05-08T11:09:30.327Z,19.83
2023-05-08T11:12:16.250Z,20.11
2023-05-08T11:14:43.884Z,20.30
2023-05-08T11:17:10.769Z,20.29
2023-05-08T11:19:38.037Z,20.24
2023-05-08T11:22:19.804Z,20.17
2023-05-08T11:24:53.774Z,20.34
2023-05-08T11:27:49.088Z,20.11
2023-05-08T11:30:36.060Z,19.85
2023-05-08T11:33:06.071Z,19.80
2023-05-08T11:35:52.148Z,19.78
2023-05-08T11:38:27.281Z,19.81
2023-05-08T11:41:04.598Z,19.82
2023-05-08T11:43:33.881Z,19.68
2023-05-08T11:46:04.344Z,19.53
2023-05-08T11:48:31.778Z,19.57
2023-05-08T11:50:59.998Z,19.54
2023-05-08T11:53:26.746Z,19.62
2023-05-08T11:55:53.763Z,19.62
2023-05-08T11:58:20.451Z,19.44
2023-05-08T12:00:48.356Z,19.28
2023-05-08T12:03:17.780Z,19.40
2023-05-08T12:05:44.825Z,19.21
2023-05-08T12:08:12.762Z,19.32
2023-05-08T12:10:59.912Z,19.42
2023-05-08T12:13:30.572Z,19.49
2023-05-08T12:15:59.004Z,19.65
2023-05-08T12:18:28.244Z,19.77
2023-05-08T12:20:57.729Z,19.60
2023-05-08T12:23:30.879Z,19.54
2023-05-08T12:26:01.270Z,19.57
2023-05-08T12:28:28.337Z,19.64
2023-05-08T12:30:54.990Z,19.56
2023-05-08T12:33:21.995Z,19.44
2023-05-08T12:35:49.205Z,19.50
2023-05-08T12:38:15.621Z,19.39
2023-05-08T12:40:45.419Z,19.37
2023-05-08T12:43:12.248Z,19.44
2023-05-08T12:45:41.147Z,19.55
2023-05-08T12:48:12.386Z,19.53
2023-05-08T12:50:41.843Z,19.76
2023-05-08T12:53:12.436Z,19.82
2023-05-08T12:55:40.733Z,20.05
2023-05-08T12:58:14.267Z,19.96
2023-05-08T13:00:43.800Z,20.10
2023-05-08T13:03:12.367Z,20.39
2023-05-08T13:05:44.351Z,20.38
2023-05-08T13:08:11.332Z,20.30
2023-05-08T13:10:54.801Z,20.04
2023-05-08T13:13:26.023Z,20.14
2023-05-08T13:15:54.982Z,20.33
2023-05-08T13:18:26.802Z,20.27
2023-05-08T13:20:54.353Z,20.66
2023-05-08T13:23:20.831Z,20.87
2023-05-08T13:25:47.304Z,20.94
2023-05-08T13:28:13.758Z,21.08
2023-05-08T13:30:40.538Z,21.34
2023-05-08T13:33:07.851Z,21.28
2023-05-08T13:35:34.971Z,21.23
2023-05-08T13:38:02.126Z,21.22
2023-05-08T13:40:28.820Z,21.24
2023-05-08T13:42:55.314Z,20.95
2023-05-08T13:45:22.040Z,21.11
2023-05-08T13:47:49.622Z,21.29
2023-05-08T13:50:18.399Z,21.40
2023-05-08T13:52:45.250Z,21.56
2023-05-08T13:55:13.672Z,21.44
2023-05-08T13:57:40.656Z,21.35
2023-05-08T14:00:08.863Z,21.41
2023-05-08T14:02:37.221Z,21.42
2023-05-08T14:05:04.547Z,21.51
2023-05-08T14:07:31.055Z,21.24
2023-05-08T14:09:57.618Z,21.16
2023-05-08T14:12:24.072Z,21.16
2023-05-08T14:14:50.577Z,21.01
2023-05-08T14:17:17.148Z,20.89
2023-05-08T14:19:43.848Z,20.77
2023-05-08T14:22:10.418Z,20.89
2023-05-08T14:24:36.913Z,20.83
2023-05-08T14:27:05.906Z,20.84
2023-05-08T14:29:34.189Z,20.80
2023-05-08T14:32:01.573Z,20.81
2023-05-08T14:34:28.146Z,20.92
2023-05-08T14:36:54.811Z,21.02
2023-05-08T14:39:21.404Z,20.96
2023-05-08T14:42:02.381Z,21.01
2023-05-08T14:44:34.544Z,20.95
2023-05-08T14:47:01.337Z,20.95
2023-05-08T14:49:36.542Z,21.08
2023-05-08T14:52:05.578Z,21.24
2023-05-08T14:54:32.563Z,21.18
2023-05-08T14:56:59.322Z,21.14
2023-05-08T14:59:25.939Z,21.18
2023-05-08T15:01:52.448Z,21.21
2023-05-08T15:04:19.134Z,21.24
2023-05-08T15:06:45.664Z,21.14
2023-05-08T15:09:12.419Z,21.12
2023-05-08T15:11:39.225Z,21.25
2023-05-08T15:14:06.138Z,21.38
2023-05-08T15:16:32.794Z,21.24
2023-05-08T15:18:59.253Z,21.09
2023-05-08T15:21:28.717Z,21.15
2023-05-08T15:23:55.659Z,21.29
2023-05-08T15:26:22.879Z,21.32
2023-05-08T15:28:49.552Z,21.38
2023-05-08T15:31:16.340Z,21.29
2023-05-08T15:33:44.918Z,21.32
2023-05-08T15:36:13.411Z,21.36
2023-05-08T15:38:41.059Z,21.29
2023-05-08T15:41:12.710Z,21.18
2023-05-08T15:43:41.015Z,21.30
2023-05-08T15:46:07.637Z,21.35
2023-05-08T15:48:34.245Z,21.26
2023-05-08T15:51:00.754Z,21.20
2023-05-08T15:53:27.289Z,21.17
2023-05-08T15:55:57.266Z,21.21
2023-05-08T15:58:24.165Z,21.29
2023-05-08T16:00:50.752Z,21.36
2023-05-08T16:03:17.520Z,21.35
2023-05-08T16:05:44.468Z,21.29
2023-05-08T16:08:12.816Z,21.26
2023-05-08T16:10:41.128Z,21.24
2023-05-08T16:13:08.391Z,21.22
2023-05-08T16:15:35.056Z,21.18
2023-05-08T16:18:01.859Z,21.21
2023-05-08T16:20:28.397Z,21.23
2023-05-08T16:22:55.974Z,21.10
2023-05-08T16:25:23.020Z,21.05
2023-05-08T16:27:49.975Z,20.91
2023-05-08T16:30:17.116Z,20.91
2023-05-08T16:32:45.763Z,20.90
2023-05-08T16:35:12.591Z,20.88
2023-05-08T16:37:39.434Z,20.91
2023-05-08T16:40:07.578Z,20.92
2023-05-08T16:42:34.112Z,20.92
2023-05-08T16:45:00.639Z,21.02
2023-05-08T16:47:27.109Z,21.01
2023-05-08T16:49:53.900Z,20.96
2023-05-08T16:52:20.367Z,20.97
2023-05-08T16:54:46.818Z,20.96
2023-05-08T16:57:13.392Z,20.96
2023-05-08T16:59:41.264Z,21.02
2023-05-08T17:02:07.722Z,21.01
2023-05-08T17:04:34.171Z,20.96
2023-05-08T17:07:00.565Z,20.94
2023-05-08T17:09:27.873Z,20.86
2023-05-08T17:11:54.287Z,20.85
2023-05-08T17:14:20.928Z,20.82
2023-05-08T17:16:47.388Z,20.75
2023-05-08T17:19:13.851Z,20.66
2023-05-08T17:21:40.361Z,20.63
2023-05-08T17:24:07.141Z,20.67
2023-05-08T17:26:33.672Z,20.57
2023-05-08T17:29:00.716Z,20.58
2023-05-08T17:31:27.499Z,20.50
2023-05-08T17:33:53.963Z,20.45
2023-05-08T17:36:20.437Z,20.44
2023-05-08T17:38:47.362Z,20.43
2023-05-08T17:41:14.370Z,20.43
2023-05-08T17:43:40.831Z,20.42
2023-05-08T17:46:07.723Z,20.35
2023-05-08T17:48:34.304Z,20.27
2023-05-08T17:51:02.685Z,20.23
2023-05-08T17:53:30.718Z,20.17
2023-05-08T17:55:57.703Z,20.14
2023-05-08T17:58:24.622Z,20.08
2023-05-08T18:00:51.114Z,20.00
2023-05-08T18:03:17.792Z,19.97
2023-05-08T18:05:44.515Z,19.92
2023-05-08T18:08:10.953Z,19.90
2023-05-08T18:10:39.167Z,19.87
2023-05-08T18:13:05.728Z,19.78
2023-05-08T18:15:33.031Z,19.76
2023-05-08T18:17:59.584Z,19.76
2023-05-08T18:20:26.070Z,19.74
2023-05-08T18:22:52.464Z,19.73
2023-05-08T18:25:19.082Z,19.69
2023-05-08T18:27:48.507Z,19.67
2023-05-08T18:30:15.158Z,19.61
2023-05-08T18:32:41.825Z,19.56
2023-05-08T18:35:08.642Z,19.56
2023-05-08T18:37:35.053Z,19.53
2023-05-08T18:40:01.563Z,19.51
2023-05-08T18:42:28.026Z,19.49
2023-05-08T18:44:55.198Z,19.50
2023-05-08T18:47:21.597Z,19.49
2023-05-08T18:49:51.565Z,19.44
2023-05-08T18:52:18.148Z,19.41
2023-05-08T18:54:44.548Z,19.43
2023-05-08T18:57:10.962Z,19.46
2023-05-08T18:59:37.617Z,19.44
2023-05-08T19:02:03.988Z,19.43
2023-05-08T19:04:30.388Z,19.34
2023-05-08T19:06:56.914Z,19.32
2023-05-08T19:09:23.365Z,19.27
2023-05-08T19:11:49.747Z,19.26
2023-05-08T19:14:16.166Z,19.24
2023-05-08T19:16:42.548Z,19.23
2023-05-08T19:19:08.963Z,19.16
2023-05-08T19:21:35.422Z,19.11
2023-05-08T19:24:01.934Z,19.13
2023-05-08T19:26:28.404Z,19.12
2023-05-08T19:28:54.795Z,19.12
2023-05-08T19:31:21.248Z,19.09
2023-05-08T19:33:48.745Z,19.10
2023-05-08T19:36:15.311Z,19.06
2023-05-08T19:38:41.868Z,18.98
2023-05-08T19:41:08.291Z,18.96
2023-05-08T19:43:34.677Z,18.96
2023-05-08T19:46:01.394Z,18.98
2023-05-08T19:48:27.834Z,18.96
2023-05-08T19:50:55.220Z,18.94
2023-05-08T19:53:22.737Z,18.92
2023-05-08T19:55:50.660Z,18.90
2023-05-08T19:58:17.778Z,18.87
2023-05-08T20:00:50.899Z,18.85
2023-05-08T20:03:17.722Z,18.89
2023-05-08T20:05:44.282Z,18.89
2023-05-08T20:08:10.895Z,18.91
2023-05-08T20:10:37.423Z,18.88
2023-05-08T20:13:03.997Z,18.88
2023-05-08T20:15:30.811Z,18.82
2023-05-08T20:17:59.622Z,18.76
2023-05-08T20:20:27.178Z,18.78
2023-05-08T20:22:53.610Z,18.78
2023-05-08T20:25:20.069Z,18.78
2023-05-08T20:27:46.534Z,18.76
2023-05-08T20:30:13.424Z,18.76
2023-05-08T20:32:40.026Z,18.76
2023-05-08T20:35:06.906Z,18.71
2023-05-08T20:37:33.315Z,18.72
2023-05-08T20:39:59.760Z,18.70
2023-05-08T20:42:26.158Z,18.65
2023-05-08T20:44:52.800Z,18.59
2023-05-08T20:47:19.186Z,18.57
2023-05-08T20:49:45.581Z,18.55
2023-05-08T20:52:11.979Z,18.53
2023-05-08T20:54:38.561Z,18.50
2023-05-08T20:57:05.155Z,18.45
2023-05-08T20:59:31.548Z,18.48
2023-05-08T21:01:57.924Z,18.39
2023-05-08T21:04:24.464Z,18.32
2023-05-08T21:06:52.142Z,18.33
2023-05-08T21:09:18.853Z,18.33
2023-05-08T21:11:45.390Z,18.31
2023-05-08T21:14:11.862Z,18.32
2023-05-08T21:16:38.351Z,18.33
2023-05-08T21:19:04.797Z,18.31
2023-05-08T21:21:31.656Z,18.25
2023-05-08T21:23:58.051Z,18.25
2023-05-08T21:26:24.528Z,18.23
2023-05-08T21:28:52.361Z,18.19
2023-05-08T21:31:19.104Z,18.25
2023-05-08T21:33:45.733Z,18.28
2023-05-08T21:36:12.330Z,18.30
2023-05-08T21:38:38.725Z,18.25
2023-05-08T21:41:07.326Z,18.25
2023-05-08T21:43:35.493Z,18.25
2023-05-08T21:46:06.321Z,18.22
2023-05-08T21:48:33.790Z,18.21
2023-05-08T21:51:00.515Z,18.17
2023-05-08T21:53:27.326Z,18.05
2023-05-08T21:55:53.790Z,18.03
2023-05-08T21:58:20.371Z,18.05
2023-05-08T22:00:46.812Z,18.00
2023-05-08T22:03:13.407Z,17.96
2023-05-08T22:05:39.893Z,17.95
2023-05-08T22:08:06.418Z,17.87
2023-05-08T22:10:32.903Z,17.80
2023-05-08T22:13:00.520Z,17.78
2023-05-08T22:15:30.525Z,17.72
2023-05-08T22:17:58.164Z,17.75
2023-05-08T22:20:25.184Z,17.73
2023-05-08T22:22:51.602Z,17.73
2023-05-08T22:25:18.084Z,17.68
2023-05-08T22:27:44.639Z,17.59
2023-05-08T22:30:11.231Z,17.61
2023-05-08T22:32:37.725Z,17.62
2023-05-08T22:35:04.447Z,17.69
2023-05-08T22:37:30.839Z,17.74
2023-05-08T22:39:57.243Z,17.75
2023-05-08T22:42:24.347Z,17.67
2023-05-08T22:44:51.168Z,17.58
2023-05-08T22:47:17.735Z,17.49
2023-05-08T22:49:44.178Z,17.41
2023-05-08T22:52:10.644Z,17.46
2023-05-08T22:54:37.115Z,17.44
2023-05-08T22:57:03.807Z,17.40
2023-05-08T22:59:30.308Z,17.37
2023-05-08T23:01:56.706Z,17.39
2023-05-08T23:04:23.143Z,17.45
2023-05-08T23:06:50.625Z,17.42
2023-05-08T23:09:17.047Z,17.30
2023-05-08T23:11:43.499Z,17.33
2023-05-08T23:14:09.912Z,17.35
2023-05-08T23:16:36.396Z,17.34
2023-05-08T23:19:04.375Z,17.37
2023-05-08T23:21:31.901Z,17.23
2023-05-08T23:23:58.803Z,17.15
2023-05-08T23:26:26.063Z,17.22
2023-05-08T23:28:52.695Z,17.18
2023-05-08T23:31:19.155Z,17.17
2023-05-08T23:33:45.689Z,17.22
2023-05-08T23:36:12.075Z,17.17
2023-05-08T23:38:38.554Z,17.20
2023-05-08T23:41:04.946Z,17.14
2023-05-08T23:43:31.337Z,17.07
2023-05-08T23:45:58.057Z,17.04
2023-05-08T23:48:25.780Z,17.10
2023-05-08T23:50:52.273Z,17.09
2023-05-08T23:53:18.760Z,17.02
2023-05-08T23:55:45.195Z,17.08
2023-05-08T23:58:11.590Z,17.11
